createdAt,value
2019-01-03T00:00:54.200Z,5.47
2019-01-03T00:03:55.307Z,9.87
2019-01-03T00:10:09.690Z,5.87
2019-01-03T00:13:10.112Z,9.47
2019-01-03T00:16:12.978Z,13.53
2019-01-03T00:19:32.612Z,9.73
2019-01-03T00:22:34.093Z,10.87
2019-01-03T00:25:22.457Z,7.73
2019-01-03T00:28:35.734Z,9.53
2019-01-03T00:31:24.054Z,9.87
2019-01-03T00:34:33.644Z,10.10
2019-01-03T00:37:29.701Z,9.13
2019-01-03T00:47:06.799Z,6.53
2019-01-03T00:50:07.819Z,6.17
2019-01-03T00:53:09.155Z,8.93
2019-01-03T00:56:09.996Z,9.70
2019-01-03T00:59:11.214Z,12.03
2019-01-03T01:02:12.697Z,6.77
2019-01-03T01:05:13.734Z,16.00
2019-01-03T01:08:15.620Z,10.03
2019-01-03T01:11:26.746Z,9.43
2019-01-03T01:14:28.687Z,6.93
2019-01-03T01:17:29.306Z,8.07
2019-01-03T01:20:31.285Z,4.50
2019-01-03T01:23:32.598Z,7.83
2019-01-03T01:26:33.352Z,5.00
2019-01-03T01:29:34.533Z,7.17
2019-01-03T01:32:41.559Z,6.20
2019-01-03T01:35:42.643Z,10.27
2019-01-03T01:38:43.464Z,10.23
2019-01-03T01:41:44.461Z,12.23
2019-01-03T01:44:45.259Z,7.27
2019-01-03T01:47:46.210Z,5.37
2019-01-03T01:50:47.896Z,6.93
2019-01-03T01:53:48.703Z,5.73
2019-01-03T01:57:03.186Z,6.33
2019-01-03T02:00:07.344Z,7.40
2019-01-03T02:03:07.107Z,15.17
2019-01-03T02:06:08.363Z,15.00
2019-01-03T02:09:10.918Z,9.47
2019-01-03T02:12:31.960Z,19.87
2019-01-03T02:15:17.315Z,14.80
2019-01-03T02:18:08.499Z,11.60
2019-01-03T02:24:09.365Z,16.33
2019-01-03T02:27:10.206Z,11.63
2019-01-03T02:30:14.472Z,16.00
2019-01-03T02:33:16.132Z,16.43
2019-01-03T02:36:17.164Z,17.13
2019-01-03T02:39:17.741Z,16.23
2019-01-03T02:42:21.746Z,9.07
2019-01-03T02:45:23.108Z,10.17
2019-01-03T02:48:24.457Z,8.00
2019-01-03T02:51:25.833Z,9.97
2019-01-03T02:54:27.495Z,10.90
2019-01-03T02:57:28.580Z,15.97
2019-01-03T03:00:26.374Z,11.00
2019-01-03T03:03:22.608Z,16.20
2019-01-03T03:06:17.525Z,8.67
2019-01-03T03:09:20.914Z,7.93
2019-01-03T03:12:21.849Z,7.97
2019-01-03T03:15:22.200Z,13.20
2019-01-03T03:27:58.622Z,14.43
2019-01-03T03:31:03.451Z,9.33
2019-01-03T03:34:04.182Z,13.67
2019-01-03T03:37:12.172Z,13.93
2019-01-03T03:40:12.725Z,19.93
2019-01-03T03:43:13.454Z,11.90
2019-01-03T03:46:14.004Z,11.57
2019-01-03T03:49:14.784Z,12.60
2019-01-03T03:52:15.556Z,15.63
2019-01-03T03:55:17.266Z,12.67
2019-01-03T03:58:18.677Z,12.40
2019-01-03T04:04:18.777Z,10.73
2019-01-03T04:07:22.932Z,10.47
2019-01-03T04:10:26.782Z,8.83
2019-01-03T04:13:30.527Z,24.30
2019-01-03T04:16:31.586Z,18.27
2019-01-03T04:19:35.036Z,12.03
2019-01-03T04:22:36.151Z,13.70
2019-01-03T04:25:31.649Z,7.93
2019-01-03T04:28:33.159Z,11.77
2019-01-03T04:31:34.221Z,9.40
2019-01-03T04:34:32.516Z,8.87
2019-01-03T04:37:36.624Z,5.07
2019-01-03T04:40:33.648Z,9.93
2019-01-03T04:43:35.011Z,13.60
2019-01-03T04:46:34.009Z,16.50
2019-01-03T04:49:41.352Z,15.10
2019-01-03T04:52:42.735Z,15.83
2019-01-03T04:55:43.720Z,8.27
2019-01-03T04:58:44.802Z,10.27
2019-01-03T05:02:11.704Z,17.30
2019-01-03T05:05:12.602Z,11.63
2019-01-03T05:08:19.626Z,16.07
2019-01-03T05:11:20.682Z,13.63
2019-01-03T05:14:24.986Z,15.23
2019-01-03T05:17:26.283Z,19.57
2019-01-03T05:20:27.410Z,14.27
2019-01-03T05:23:28.049Z,15.80
2019-01-03T05:26:37.460Z,14.03
2019-01-03T05:29:29.121Z,13.83
2019-01-03T05:32:38.604Z,15.87
2019-01-03T05:35:39.171Z,12.37
2019-01-03T05:38:40.245Z,10.67
2019-01-03T05:41:44.229Z,14.50
2019-01-03T05:44:44.955Z,15.70
2019-01-03T05:47:36.536Z,13.33
2019-01-03T05:50:46.127Z,14.33
2019-01-03T05:53:53.227Z,16.87
2019-01-03T05:56:54.688Z,13.67
2019-01-03T05:59:55.395Z,15.83
2019-01-03T06:02:56.425Z,11.00
2019-01-03T06:05:57.651Z,15.87
2019-01-03T06:08:59.882Z,10.93
2019-01-03T06:12:09.368Z,14.10
2019-01-03T06:15:09.967Z,10.47
2019-01-03T06:18:10.595Z,11.57
2019-01-03T06:21:12.822Z,18.93
2019-01-03T06:24:34.144Z,22.37
2019-01-03T06:27:24.919Z,17.30
2019-01-03T06:30:25.703Z,17.30
2019-01-03T06:33:29.697Z,12.73
2019-01-03T06:36:36.080Z,15.17
2019-01-03T06:39:33.286Z,20.97
2019-01-03T06:42:34.629Z,17.53
2019-01-03T06:45:34.614Z,22.07
2019-01-03T06:48:35.685Z,20.97
2019-01-03T06:51:37.010Z,14.60
2019-01-03T06:54:42.866Z,13.47
2019-01-03T06:57:34.430Z,15.03
2019-01-03T07:00:44.419Z,14.53
2019-01-03T07:03:45.770Z,12.67
2019-01-03T07:06:47.321Z,12.47
2019-01-03T07:09:43.091Z,14.77
2019-01-03T07:12:43.866Z,18.93
2019-01-03T07:15:44.745Z,15.87
2019-01-03T07:18:47.905Z,14.03
2019-01-03T07:21:51.625Z,13.30
2019-01-03T07:24:52.759Z,11.03
2019-01-03T07:27:54.208Z,12.43
2019-01-03T07:30:55.027Z,17.67
2019-01-03T07:33:51.590Z,14.77
2019-01-03T07:36:55.997Z,13.07
2019-01-03T07:39:56.782Z,16.53
2019-01-03T07:42:57.527Z,16.07
2019-01-03T07:45:56.898Z,20.83
2019-01-03T07:48:58.794Z,17.37
2019-01-03T07:52:00.285Z,19.90
2019-01-03T07:55:01.799Z,21.80
2019-01-03T07:58:02.661Z,21.00
2019-01-03T08:01:04.080Z,26.87
2019-01-03T08:04:04.639Z,18.37
2019-01-03T08:07:05.468Z,19.20
2019-01-03T08:10:06.910Z,18.73
2019-01-03T08:13:08.309Z,21.63
2019-01-03T08:16:09.614Z,17.57
2019-01-03T08:22:17.818Z,21.90
2019-01-03T08:25:25.141Z,18.77
2019-01-03T08:28:26.523Z,19.53
2019-01-03T08:31:27.798Z,24.37
2019-01-03T08:34:34.375Z,23.87
2019-01-03T08:37:41.283Z,19.10
2019-01-03T08:40:42.666Z,22.03
2019-01-03T08:43:43.422Z,21.53
2019-01-03T08:46:44.374Z,26.53
2019-01-03T08:49:45.466Z,20.00
2019-01-03T08:52:46.569Z,20.33
2019-01-03T08:55:47.828Z,25.63
2019-01-03T08:58:48.499Z,20.63
2019-01-03T09:01:58.041Z,26.23
2019-01-03T09:05:04.545Z,29.37
2019-01-03T09:08:05.346Z,31.00
2019-01-03T09:11:09.294Z,27.20
2019-01-03T09:17:12.799Z,23.00
2019-01-03T09:20:13.855Z,18.90
2019-01-03T09:23:15.135Z,16.97
2019-01-03T09:26:17.589Z,14.87
2019-01-03T09:28:56.465Z,24.10
2019-01-03T09:32:05.820Z,27.40
2019-01-03T09:35:06.771Z,20.70
2019-01-03T09:38:06.477Z,17.77
2019-01-03T09:41:07.481Z,18.53
2019-01-03T09:44:08.170Z,18.33
2019-01-03T09:46:50.787Z,13.67
2019-01-03T09:49:34.519Z,14.53
2019-01-03T09:52:17.817Z,17.30
2019-01-03T09:55:01.010Z,13.57
2019-01-03T09:57:44.519Z,14.57
2019-01-03T10:00:27.820Z,19.87
2019-01-03T10:03:10.522Z,15.03
2019-01-03T10:06:02.102Z,18.73
2019-01-03T10:08:45.112Z,18.70
2019-01-03T10:11:28.610Z,14.57
2019-01-03T10:14:11.348Z,16.33
2019-01-03T10:16:53.942Z,13.27
2019-01-03T10:19:37.328Z,14.00
2019-01-03T10:22:18.902Z,19.80
2019-01-03T10:27:41.729Z,12.43
2019-01-03T10:30:24.590Z,16.20
2019-01-03T10:33:08.410Z,20.30
2019-01-03T10:35:51.440Z,19.17
2019-01-03T10:38:34.590Z,12.07
2019-01-03T10:41:17.298Z,14.30
2019-01-03T10:44:00.272Z,14.80
2019-01-03T10:46:42.991Z,17.23
2019-01-03T10:49:26.056Z,18.60
2019-01-03T10:52:08.879Z,19.80
2019-01-03T10:54:51.470Z,20.07
2019-01-03T10:57:34.178Z,27.73
2019-01-03T11:00:08.450Z,27.23
2019-01-03T11:02:41.904Z,24.50
2019-01-03T11:05:33.521Z,29.90
2019-01-03T11:08:25.150Z,29.97
2019-01-03T11:11:07.873Z,27.20
2019-01-03T11:13:50.754Z,21.17
2019-01-03T11:16:34.261Z,23.03
2019-01-03T11:19:17.194Z,22.93
2019-01-03T11:21:59.814Z,19.00
2019-01-03T11:24:42.939Z,13.50
2019-01-03T11:27:26.267Z,22.23
2019-01-03T11:30:09.008Z,19.23
2019-01-03T11:32:51.591Z,17.27
2019-01-03T11:35:34.327Z,13.13
2019-01-03T11:38:17.755Z,15.20
2019-01-03T11:41:01.278Z,14.90
2019-01-03T11:43:44.781Z,19.07
2019-01-03T11:46:27.353Z,18.67
2019-01-03T11:49:10.239Z,20.87
2019-01-03T11:51:53.102Z,21.63
2019-01-03T11:54:26.606Z,22.17
2019-01-03T11:57:18.214Z,19.67
2019-01-03T12:00:10.650Z,20.40
2019-01-03T12:02:54.139Z,19.03
2019-01-03T12:05:37.422Z,22.77
2019-01-03T12:08:21.228Z,18.07
2019-01-03T12:11:04.902Z,18.90
2019-01-03T12:13:48.451Z,23.90
2019-01-03T12:16:31.263Z,26.70
2019-01-03T12:19:15.571Z,20.70
2019-01-03T12:21:58.430Z,23.13
2019-01-03T12:24:41.018Z,33.63
2019-01-03T12:27:24.377Z,34.50
2019-01-03T12:32:44.959Z,31.40
2019-01-03T12:38:26.238Z,28.30
2019-01-03T12:41:26.650Z,25.37
2019-01-03T12:44:09.358Z,18.77
2019-01-03T12:46:52.363Z,24.97
2019-01-03T12:49:34.781Z,20.70
2019-01-03T12:52:19.431Z,27.27
2019-01-03T12:55:02.345Z,24.70
2019-01-03T12:57:45.189Z,24.23
2019-01-03T13:00:27.652Z,20.70
2019-01-03T13:06:00.906Z,16.33
2019-01-03T13:08:44.025Z,15.37
2019-01-03T13:11:26.190Z,19.20
2019-01-03T13:14:10.118Z,19.73
2019-01-03T13:16:54.222Z,23.20
2019-01-03T13:19:37.329Z,20.40
2019-01-03T13:22:18.942Z,23.43
2019-01-03T13:25:02.293Z,17.73
2019-01-03T13:27:44.922Z,21.80
2019-01-03T13:30:27.405Z,17.20
2019-01-03T13:33:10.362Z,15.27
2019-01-03T13:35:53.694Z,18.53
2019-01-03T13:38:36.761Z,20.67
2019-01-03T13:41:19.271Z,13.77
2019-01-03T13:44:02.143Z,17.20
2019-01-03T13:46:44.782Z,17.67
2019-01-03T13:49:29.103Z,14.93
2019-01-03T13:52:11.965Z,18.77
2019-01-03T13:54:54.605Z,20.87
2019-01-03T13:57:37.811Z,14.17
2019-01-03T14:00:20.201Z,21.93
2019-01-03T14:05:46.321Z,11.37
2019-01-03T14:08:29.178Z,15.00
2019-01-03T14:11:12.449Z,12.00
2019-01-03T14:13:55.268Z,13.07
2019-01-03T14:16:36.949Z,13.83
2019-01-03T14:19:14.123Z,11.17
2019-01-03T14:22:05.444Z,10.20
2019-01-03T14:25:14.922Z,15.13
2019-01-03T14:27:57.644Z,19.37
2019-01-03T14:33:43.593Z,11.13
2019-01-03T14:36:26.384Z,17.17
2019-01-03T14:39:09.737Z,12.77
2019-01-03T14:44:34.812Z,8.97
2019-01-03T14:47:18.166Z,9.97
2019-01-03T14:50:00.620Z,13.90
2019-01-03T14:55:25.995Z,9.97
2019-01-03T14:58:10.526Z,11.93
2019-01-03T15:00:52.586Z,21.20
2019-01-03T15:06:18.483Z,11.13
2019-01-03T15:09:01.664Z,12.27
2019-01-03T15:11:44.247Z,15.33
2019-01-03T15:14:27.053Z,15.53
2019-01-03T15:17:09.833Z,14.47
2019-01-03T15:19:52.195Z,9.30
2019-01-03T15:22:37.819Z,13.80
2019-01-03T15:25:29.700Z,8.77
2019-01-03T15:28:12.464Z,10.77
2019-01-03T15:34:07.657Z,11.87
2019-01-03T15:42:22.734Z,10.33
2019-01-03T15:45:05.091Z,23.27
2019-01-03T15:47:47.936Z,12.73
2019-01-03T15:50:31.371Z,10.07
2019-01-03T15:53:15.049Z,11.37
2019-01-03T15:55:58.895Z,12.23
2019-01-03T16:01:42.367Z,16.67
2019-01-03T16:04:28.898Z,15.77
2019-01-03T16:07:15.969Z,11.97
2019-01-03T16:10:16.222Z,17.90
2019-01-03T16:12:48.666Z,10.17
2019-01-03T16:15:27.232Z,7.97
2019-01-03T16:18:18.461Z,8.87
2019-01-03T16:21:01.274Z,13.83
2019-01-03T16:23:43.726Z,12.65
2019-01-03T16:26:26.336Z,9.77
2019-01-03T16:29:09.628Z,7.83
2019-01-03T16:31:56.582Z,10.28
2019-01-03T16:34:40.122Z,9.15
2019-01-03T16:37:23.681Z,9.63
2019-01-03T16:40:07.599Z,8.63
2019-01-03T16:42:50.565Z,11.73
2019-01-03T16:45:33.410Z,10.33
2019-01-03T16:48:16.238Z,8.65
2019-01-03T16:50:59.736Z,5.42
2019-01-03T16:53:43.152Z,9.38
2019-01-03T16:56:25.922Z,7.80
2019-01-03T16:59:09.044Z,5.90
2019-01-03T17:01:52.798Z,5.43
2019-01-03T17:04:38.506Z,8.60
2019-01-03T17:07:22.399Z,5.22
2019-01-03T17:10:05.673Z,3.55
2019-01-03T17:12:49.554Z,4.20
2019-01-03T17:15:39.921Z,9.45
2019-01-03T17:18:26.768Z,5.03
2019-01-03T17:21:10.410Z,4.45
2019-01-03T17:23:53.468Z,7.95
2019-01-03T17:26:36.490Z,11.38
2019-01-03T17:29:19.638Z,10.90
2019-01-03T17:32:02.437Z,7.17
2019-01-03T17:34:45.926Z,7.33
2019-01-03T17:37:28.846Z,8.18
2019-01-03T17:40:11.633Z,9.40
2019-01-03T17:42:54.237Z,6.92
2019-01-03T17:45:37.007Z,12.37
2019-01-03T17:48:19.943Z,13.53
2019-01-03T17:51:03.911Z,11.63
2019-01-03T17:56:39.086Z,8.85
2019-01-03T17:59:22.044Z,15.05
2019-01-03T18:02:06.897Z,6.58
2019-01-03T18:04:50.749Z,6.60
2019-01-03T18:07:34.485Z,14.45
2019-01-03T18:10:18.146Z,12.03
2019-01-03T18:13:01.348Z,9.40
2019-01-03T18:15:44.348Z,7.42
2019-01-03T18:18:28.320Z,6.53
2019-01-03T18:21:11.522Z,10.30
2019-01-03T18:23:54.755Z,7.17
2019-01-03T18:29:44.578Z,9.78
2019-01-03T18:32:27.564Z,5.05
2019-01-03T18:35:10.562Z,7.97
2019-01-03T18:37:53.647Z,4.55
2019-01-03T18:40:36.812Z,6.42
2019-01-03T18:43:19.870Z,6.78
2019-01-03T18:46:02.622Z,4.35
2019-01-03T18:48:45.601Z,8.88
2019-01-03T18:51:29.709Z,6.25
2019-01-03T18:54:12.775Z,8.53
2019-01-03T18:56:55.054Z,8.35
2019-01-03T18:59:38.383Z,6.72
2019-01-03T19:02:22.409Z,9.98
2019-01-03T19:08:06.080Z,5.97
2019-01-03T19:10:49.062Z,5.80
2019-01-03T19:13:32.234Z,10.68
2019-01-03T19:16:15.166Z,12.53
2019-01-03T19:18:57.446Z,12.85
2019-01-03T19:21:40.722Z,10.63
2019-01-03T19:24:23.385Z,10.58
2019-01-03T19:27:06.164Z,11.08
2019-01-03T19:29:49.456Z,6.97
2019-01-03T19:32:32.573Z,8.78
2019-01-03T19:35:14.883Z,8.30
2019-01-03T19:37:57.747Z,11.70
2019-01-03T19:40:41.121Z,6.22
2019-01-03T19:43:23.955Z,10.88
2019-01-03T19:46:07.965Z,9.08
2019-01-03T19:48:52.088Z,5.58
2019-01-03T19:51:34.547Z,13.50
2019-01-03T19:54:18.236Z,6.55
2019-01-03T19:57:00.925Z,12.50
2019-01-03T19:59:43.770Z,8.98
2019-01-03T20:02:26.203Z,10.95
2019-01-03T20:05:09.238Z,7.17
2019-01-03T20:07:52.595Z,5.15
2019-01-03T20:10:35.305Z,7.90
2019-01-03T20:13:17.700Z,9.80
2019-01-03T20:16:00.679Z,6.67
2019-01-03T20:18:43.300Z,5.47
2019-01-03T20:24:06.201Z,8.70
2019-01-03T20:26:48.537Z,7.83
2019-01-03T20:29:31.397Z,8.03
2019-01-03T20:32:14.360Z,12.18
2019-01-03T20:34:56.871Z,7.45
2019-01-03T20:37:39.753Z,6.50
2019-01-03T20:40:23.297Z,8.23
2019-01-03T20:43:06.011Z,8.48
2019-01-03T20:45:49.239Z,13.90
2019-01-03T20:48:32.273Z,10.43
2019-01-03T20:51:15.692Z,7.45
2019-01-03T20:53:58.184Z,9.50
2019-01-03T20:56:40.818Z,16.23
2019-01-03T20:59:23.745Z,12.63
2019-01-03T21:02:06.647Z,12.85
2019-01-03T21:04:50.564Z,10.88
2019-01-03T21:07:33.493Z,9.10
2019-01-03T21:10:17.571Z,12.05
2019-01-03T21:13:01.429Z,10.32
2019-01-03T21:15:44.981Z,6.08
2019-01-03T21:18:24.405Z,9.93
2019-01-03T21:23:56.955Z,11.65
2019-01-03T21:26:39.975Z,6.78
2019-01-03T21:29:22.477Z,8.53
2019-01-03T21:32:05.325Z,12.43
2019-01-03T21:34:47.681Z,9.90
2019-01-03T21:40:12.441Z,10.10
2019-01-03T21:42:55.250Z,11.00
2019-01-03T21:45:37.755Z,13.13
2019-01-03T21:51:29.922Z,10.65
2019-01-03T21:57:05.828Z,8.75
2019-01-03T21:59:48.686Z,9.50
2019-01-03T22:02:34.506Z,11.28
2019-01-03T22:05:17.782Z,11.28
2019-01-03T22:08:02.187Z,12.20
2019-01-03T22:10:45.051Z,8.18
2019-01-03T22:13:28.113Z,23.45
2019-01-03T22:19:12.695Z,44.38
2019-01-03T22:21:55.680Z,42.70
2019-01-03T22:24:38.988Z,36.73
2019-01-03T22:27:30.445Z,29.55
2019-01-03T22:30:15.608Z,57.62
2019-01-03T22:32:58.471Z,33.95
2019-01-03T22:38:51.364Z,35.75
2019-01-03T22:50:49.517Z,30.80
2019-01-03T22:53:38.676Z,37.50
2019-01-03T22:59:53.127Z,10.65
2019-01-03T23:02:36.673Z,13.43
2019-01-03T23:05:20.580Z,9.15
2019-01-03T23:10:45.077Z,9.40
2019-01-03T23:13:28.567Z,10.70
2019-01-03T23:16:12.116Z,14.68
2019-01-03T23:18:55.272Z,11.90
2019-01-03T23:21:39.226Z,13.60
2019-01-03T23:24:23.841Z,9.05
2019-01-03T23:29:52.400Z,9.68
2019-01-03T23:32:36.535Z,9.93
2019-01-03T23:35:24.220Z,10.53
2019-01-03T23:38:07.479Z,10.53
2019-01-03T23:40:50.500Z,10.57
2019-01-03T23:43:34.499Z,10.47
2019-01-03T23:46:17.980Z,16.93
2019-01-03T23:49:01.388Z,12.53
2019-01-03T23:51:44.671Z,7.70
2019-01-03T23:54:28.419Z,9.93
2019-01-03T23:57:19.201Z,8.53
